Airfield :
LOGIN :

Register | Disclaimer

   EN    FR    IT 

 










Legend :    VFR   Marginal VFR   IFR   Intensive IFR   Very Intensive IFR
Visi :
Ceiling :
>= 8 km
>= 3000ft
5 to 8 km
1000 to 3000 ft
1500m to 5 km
500 to 1000 ft
800 to 1500m
200 to 500 ft
< 800m
< 200 ft
Symbols :   Thunderstorms  Fog  Heavy snow  Heavy precipitations  Wind > 20 kt
SIGMETs :     Misc.  Thunderstorms  Icing  Turbulence  Mountain Waves  Volcanic Ashes







- Airport Elevation : 290 ft
- IATA code : LAI
- Download approach charts


LFRO - Lannion

CURRENT METAR :
  • 280330Z AUTO 20006KT 9999 4500 OVC006 15/15 Q0999

EXPIRED METARs :
  • 280300Z AUTO 22007KT 190V250 9999 BKN008 BKN012 OVC017 15/15 Q0999
  • 280230Z AUTO 21005KT 9999 BKN006 OVC010 15/15 Q0999
  • 280200Z AUTO 14004KT 120V180 3300 RA BR OVC006/// ///TCU 15/14 Q0999
  • 280130Z AUTO 12004KT 4200 -RA BR BKN010/// OVC015/// ///TCU 15/14 Q1000
  • 280100Z AUTO 12005KT 7000 -RA BKN016/// BKN022/// OVC028/// ///TCU 15/14 Q1000
  • 280030Z AUTO 12006KT 9999 -DZ BKN012/// BKN029/// OVC036/// ///TCU 15/14 Q1001

TAF TAF LFRO
Valid from the 27 at 12:00 until the 28 at 12:00 UTC


271100Z 2712/2812 31005KT 9999 FEW008 BKN013
TEMPO 2712/2724 4000 SHRA SCT010TCU
PROB30
TEMPO 2712/2719 TSRA SCT012CB
BECMG 2800/2803 RA OVC005
No reported NOTAMs for that airfield.
1 SIGMET reported for the Brest FIR (LFRR) :
 
Embedded thunderstorms
LFRR SIGMET 1 VALID 280300/280500 LFPW
LFRR BREST FIR/UIR EMBD TS OBS WI N4600 W00800 - N4715 W00800 - N4530 W00600 - N4500 W00700 TOP FL280 MOV E 20KT NC=



MET'MAP, your aeronautical weather chart ! - Copyright ORBIFLY December 2007 - Disclaimer

ORBIFLY MET'MAP TEAM :

Programming & Development : Alexandra Zaïnal
Concept & Development : Baudouin d'Aumeries
Co-Development & Prog : Marc-Olivier Méhu
Technical & hardware support : Manuel Goepfert

Contact : metmap@orbifly.com




SOURCES & CREDITS :

   NOAA